sensor_id;sensor_type;location;lat;lon;timestamp;temperature;humidity
42339;DHT22;27993;45.392;10.918;2022-09-20T00:02:14;16.00;98.30
42339;DHT22;27993;45.392;10.918;2022-09-20T00:04:47;15.70;99.10
42339;DHT22;27993;45.392;10.918;2022-09-20T00:07:18;15.70;98.90
42339;DHT22;27993;45.392;10.918;2022-09-20T00:09:49;15.40;99.70
42339;DHT22;27993;45.392;10.918;2022-09-20T00:12:19;15.60;99.50
42339;DHT22;27993;45.392;10.918;2022-09-20T00:14:50;15.50;99.90
42339;DHT22;27993;45.392;10.918;2022-09-20T00:17:21;15.30;99.90
42339;DHT22;27993;45.392;10.918;2022-09-20T00:19:51;15.40;99.90
42339;DHT22;27993;45.392;10.918;2022-09-20T00:22:22;15.20;99.90
42339;DHT22;27993;45.392;10.918;2022-09-20T00:24:52;15.40;99.90
42339;DHT22;27993;45.392;10.918;2022-09-20T00:27:23;15.40;99.90
42339;DHT22;27993;45.392;10.918;2022-09-20T00:29:53;15.20;99.90
42339;DHT22;27993;45.392;10.918;2022-09-20T00:32:24;15.10;99.90
42339;DHT22;27993;45.392;10.918;2022-09-20T00:34:55;14.90;99.80
42339;DHT22;27993;45.392;10.918;2022-09-20T00:37:39;14.60;99.50
42339;DHT22;27993;45.392;10.918;2022-09-20T00:40:16;14.50;99.40
42339;DHT22;27993;45.392;10.918;2022-09-20T00:42:47;14.40;99.40
42339;DHT22;27993;45.392;10.918;2022-09-20T00:45:24;14.50;99.30
42339;DHT22;27993;45.392;10.918;2022-09-20T00:48:02;14.40;99.70
42339;DHT22;27993;45.392;10.918;2022-09-20T00:50:41;14.50;99.90
42339;DHT22;27993;45.392;10.918;2022-09-20T00:53:24;14.60;99.90
42339;DHT22;27993;45.392;10.918;2022-09-20T00:56:06;14.70;99.90
42339;DHT22;27993;45.392;10.918;2022-09-20T00:58:43;14.70;99.90
42339;DHT22;27993;45.392;10.918;2022-09-20T01:01:15;14.70;99.90
42339;DHT22;27993;45.392;10.918;2022-09-20T01:03:47;14.80;99.90
42339;DHT22;27993;45.392;10.918;2022-09-20T01:06:18;14.90;99.90
42339;DHT22;27993;45.392;10.918;2022-09-20T01:08:50;15.00;99.90
42339;DHT22;27993;45.392;10.918;2022-09-20T01:11:24;15.00;99.90
42339;DHT22;27993;45.392;10.918;2022-09-20T01:13:55;15.00;99.90
42339;DHT22;27993;45.392;10.918;2022-09-20T01:16:28;15.10;99.80
42339;DHT22;27993;45.392;10.918;2022-09-20T01:19:01;15.20;99.80
42339;DHT22;27993;45.392;10.918;2022-09-20T01:21:34;15.20;99.90
42339;DHT22;27993;45.392;10.918;2022-09-20T01:26:55;15.20;99.90
42339;DHT22;27993;45.392;10.918;2022-09-20T01:32:04;15.10;99.90
42339;DHT22;27993;45.392;10.918;2022-09-20T01:34:45;15.30;99.40
42339;DHT22;27993;45.392;10.918;2022-09-20T01:37:27;15.30;99.50
42339;DHT22;27993;45.392;10.918;2022-09-20T01:45:48;15.60;99.30
42339;DHT22;27993;45.392;10.918;2022-09-20T01:48:38;15.40;99.80
42339;DHT22;27993;45.392;10.918;2022-09-20T01:51:45;15.40;99.90
42339;DHT22;27993;45.392;10.918;2022-09-20T02:06:23;15.60;99.40
42339;DHT22;27993;45.392;10.918;2022-09-20T02:09:16;15.70;99.20
42339;DHT22;27993;45.392;10.918;2022-09-20T02:17:13;15.30;99.90
42339;DHT22;27993;45.392;10.918;2022-09-20T02:19:50;15.50;99.90
42339;DHT22;27993;45.392;10.918;2022-09-20T02:39:39;15.40;99.90
42339;DHT22;27993;45.392;10.918;2022-09-20T02:42:22;15.00;99.90
42339;DHT22;27993;45.392;10.918;2022-09-20T02:45:15;14.80;99.90
42339;DHT22;27993;45.392;10.918;2022-09-20T02:47:47;14.70;99.90
42339;DHT22;27993;45.392;10.918;2022-09-20T02:59:10;14.70;99.90
42339;DHT22;27993;45.392;10.918;2022-09-20T03:01:47;14.60;99.90
42339;DHT22;27993;45.392;10.918;2022-09-20T03:10:37;14.80;99.90
42339;DHT22;27993;45.392;10.918;2022-09-20T03:36:41;14.50;99.90
42339;DHT22;27993;45.392;10.918;2022-09-20T03:42:26;15.10;99.90
42339;DHT22;27993;45.392;10.918;2022-09-20T03:50:41;15.00;99.90
42339;DHT22;27993;45.392;10.918;2022-09-20T03:59:19;15.30;99.90
42339;DHT22;27993;45.392;10.918;2022-09-20T04:02:12;15.40;99.90
42339;DHT22;27993;45.392;10.918;2022-09-20T04:04:56;15.40;99.90
42339;DHT22;27993;45.392;10.918;2022-09-20T04:21:42;15.30;99.90
42339;DHT22;27993;45.392;10.918;2022-09-20T04:27:28;15.40;99.90
42339;DHT22;27993;45.392;10.918;2022-09-20T04:30:05;15.20;99.90
42339;DHT22;27993;45.392;10.918;2022-09-20T04:50:40;15.00;99.90
42339;DHT22;27993;45.392;10.918;2022-09-20T04:53:37;15.00;99.90
42339;DHT22;27993;45.392;10.918;2022-09-20T04:56:20;15.00;99.90
42339;DHT22;27993;45.392;10.918;2022-09-20T04:59:08;15.00;99.90
42339;DHT22;27993;45.392;10.918;2022-09-20T05:04:55;15.00;99.90
42339;DHT22;27993;45.392;10.918;2022-09-20T05:19:30;14.80;99.90
42339;DHT22;27993;45.392;10.918;2022-09-20T05:31:10;14.70;99.90
42339;DHT22;27993;45.392;10.918;2022-09-20T05:33:51;15.10;99.90
42339;DHT22;27993;45.392;10.918;2022-09-20T05:45:47;16.80;99.90
42339;DHT22;27993;45.392;10.918;2022-09-20T05:48:23;17.00;99.90
42339;DHT22;27993;45.392;10.918;2022-09-20T06:02:33;18.00;99.90
42339;DHT22;27993;45.392;10.918;2022-09-20T06:08:16;18.10;99.90
42339;DHT22;27993;45.392;10.918;2022-09-20T06:16:46;19.00;99.90
42339;DHT22;27993;45.392;10.918;2022-09-20T06:19:24;19.40;99.90
42339;DHT22;27993;45.392;10.918;2022-09-20T06:22:00;20.00;99.90
42339;DHT22;27993;45.392;10.918;2022-09-20T06:24:46;20.20;99.90
42339;DHT22;27993;45.392;10.918;2022-09-20T06:27:25;20.30;99.90
42339;DHT22;27993;45.392;10.918;2022-09-20T06:30:00;20.30;99.90
42339;DHT22;27993;45.392;10.918;2022-09-20T06:32:31;20.10;99.90
42339;DHT22;27993;45.392;10.918;2022-09-20T06:35:04;20.30;99.90
42339;DHT22;27993;45.392;10.918;2022-09-20T06:38:00;20.50;99.90
42339;DHT22;27993;45.392;10.918;2022-09-20T06:41:08;20.40;99.90
42339;DHT22;27993;45.392;10.918;2022-09-20T06:43:59;20.90;99.90
42339;DHT22;27993;45.392;10.918;2022-09-20T06:46:32;20.70;99.90
42339;DHT22;27993;45.392;10.918;2022-09-20T06:49:03;20.50;99.90
42339;DHT22;27993;45.392;10.918;2022-09-20T06:51:37;20.70;99.90
42339;DHT22;27993;45.392;10.918;2022-09-20T06:54:15;20.50;99.90
42339;DHT22;27993;45.392;10.918;2022-09-20T06:56:48;20.80;99.90
42339;DHT22;27993;45.392;10.918;2022-09-20T06:59:19;21.00;99.90
42339;DHT22;27993;45.392;10.918;2022-09-20T07:01:50;21.70;99.50
42339;DHT22;27993;45.392;10.918;2022-09-20T07:04:21;21.10;99.40
42339;DHT22;27993;45.392;10.918;2022-09-20T07:07:00;21.00;98.10
42339;DHT22;27993;45.392;10.918;2022-09-20T07:09:31;21.70;97.50
42339;DHT22;27993;45.392;10.918;2022-09-20T07:12:01;22.90;95.90
42339;DHT22;27993;45.392;10.918;2022-09-20T07:14:32;23.20;95.40
42339;DHT22;27993;45.392;10.918;2022-09-20T07:17:03;23.30;95.10
42339;DHT22;27993;45.392;10.918;2022-09-20T07:19:34;23.80;94.20
42339;DHT22;27993;45.392;10.918;2022-09-20T07:22:06;24.20;94.40
42339;DHT22;27993;45.392;10.918;2022-09-20T07:24:36;24.00;93.60
42339;DHT22;27993;45.392;10.918;2022-09-20T07:27:08;23.00;96.60
42339;DHT22;27993;45.392;10.918;2022-09-20T07:29:40;23.00;95.20
42339;DHT22;27993;45.392;10.918;2022-09-20T07:32:11;24.20;93.30
42339;DHT22;27993;45.392;10.918;2022-09-20T07:34:41;24.20;93.50
42339;DHT22;27993;45.392;10.918;2022-09-20T07:37:12;24.00;92.80
42339;DHT22;27993;45.392;10.918;2022-09-20T07:39:44;24.20;92.50
42339;DHT22;27993;45.392;10.918;2022-09-20T07:42:15;24.10;92.40
42339;DHT22;27993;45.392;10.918;2022-09-20T07:44:45;24.60;92.30
42339;DHT22;27993;45.392;10.918;2022-09-20T07:47:17;24.20;92.20
42339;DHT22;27993;45.392;10.918;2022-09-20T07:49:47;24.30;91.50
42339;DHT22;27993;45.392;10.918;2022-09-20T07:52:18;24.20;92.20
42339;DHT22;27993;45.392;10.918;2022-09-20T07:54:49;24.10;91.70
42339;DHT22;27993;45.392;10.918;2022-09-20T07:57:19;24.10;91.80
42339;DHT22;27993;45.392;10.918;2022-09-20T07:59:50;23.50;93.40
42339;DHT22;27993;45.392;10.918;2022-09-20T08:02:20;23.60;94.40
42339;DHT22;27993;45.392;10.918;2022-09-20T08:04:51;23.80;94.60
42339;DHT22;27993;45.392;10.918;2022-09-20T08:07:21;23.50;94.50
42339;DHT22;27993;45.392;10.918;2022-09-20T08:09:52;25.00;93.80
42339;DHT22;27993;45.392;10.918;2022-09-20T08:12:23;25.50;92.30
42339;DHT22;27993;45.392;10.918;2022-09-20T08:14:55;24.70;93.90
42339;DHT22;27993;45.392;10.918;2022-09-20T08:17:25;24.80;93.60
42339;DHT22;27993;45.392;10.918;2022-09-20T08:19:56;25.00;93.10
42339;DHT22;27993;45.392;10.918;2022-09-20T08:22:26;24.80;94.80
42339;DHT22;27993;45.392;10.918;2022-09-20T08:24:57;25.50;94.80
42339;DHT22;27993;45.392;10.918;2022-09-20T08:27:28;25.80;93.40
42339;DHT22;27993;45.392;10.918;2022-09-20T08:29:58;26.20;93.50
42339;DHT22;27993;45.392;10.918;2022-09-20T08:32:30;26.10;93.20
42339;DHT22;27993;45.392;10.918;2022-09-20T08:35:01;25.50;93.60
42339;DHT22;27993;45.392;10.918;2022-09-20T08:37:33;25.80;93.90
42339;DHT22;27993;45.392;10.918;2022-09-20T08:40:05;25.70;93.90
42339;DHT22;27993;45.392;10.918;2022-09-20T08:42:36;26.00;93.60
42339;DHT22;27993;45.392;10.918;2022-09-20T08:45:21;26.00;94.80
42339;DHT22;27993;45.392;10.918;2022-09-20T08:47:59;26.30;93.50
42339;DHT22;27993;45.392;10.918;2022-09-20T08:50:31;26.50;93.30
42339;DHT22;27993;45.392;10.918;2022-09-20T08:53:04;26.00;92.90
42339;DHT22;27993;45.392;10.918;2022-09-20T08:55:35;25.40;94.30
42339;DHT22;27993;45.392;10.918;2022-09-20T08:58:11;25.20;94.60
42339;DHT22;27993;45.392;10.918;2022-09-20T09:00:45;25.90;94.60
42339;DHT22;27993;45.392;10.918;2022-09-20T09:03:17;26.60;93.00
42339;DHT22;27993;45.392;10.918;2022-09-20T09:05:52;26.20;93.40
42339;DHT22;27993;45.392;10.918;2022-09-20T09:08:32;27.20;92.80
42339;DHT22;27993;45.392;10.918;2022-09-20T09:11:06;27.60;92.70
42339;DHT22;27993;45.392;10.918;2022-09-20T09:13:47;26.50;94.20
42339;DHT22;27993;45.392;10.918;2022-09-20T09:16:23;27.40;94.80
42339;DHT22;27993;45.392;10.918;2022-09-20T09:18:54;28.40;92.20
42339;DHT22;27993;45.392;10.918;2022-09-20T09:21:28;28.20;92.30
42339;DHT22;27993;45.392;10.918;2022-09-20T09:24:03;28.50;92.00
42339;DHT22;27993;45.392;10.918;2022-09-20T09:26:36;28.30;91.40
42339;DHT22;27993;45.392;10.918;2022-09-20T09:29:15;28.70;91.20
42339;DHT22;27993;45.392;10.918;2022-09-20T09:31:49;29.20;92.50
42339;DHT22;27993;45.392;10.918;2022-09-20T09:34:27;27.90;91.40
42339;DHT22;27993;45.392;10.918;2022-09-20T09:36:58;29.00;91.00
42339;DHT22;27993;45.392;10.918;2022-09-20T09:39:33;29.30;90.50
42339;DHT22;27993;45.392;10.918;2022-09-20T09:42:33;30.40;91.20
42339;DHT22;27993;45.392;10.918;2022-09-20T09:45:12;29.70;89.60
42339;DHT22;27993;45.392;10.918;2022-09-20T09:47:54;28.60;90.10
42339;DHT22;27993;45.392;10.918;2022-09-20T09:50:28;28.80;90.40
42339;DHT22;27993;45.392;10.918;2022-09-20T09:53:09;29.80;90.30
42339;DHT22;27993;45.392;10.918;2022-09-20T10:01:37;29.90;90.00
42339;DHT22;27993;45.392;10.918;2022-09-20T10:04:30;29.70;90.90
42339;DHT22;27993;45.392;10.918;2022-09-20T10:07:22;29.70;90.00
42339;DHT22;27993;45.392;10.918;2022-09-20T10:10:02;29.20;90.20
42339;DHT22;27993;45.392;10.918;2022-09-20T10:12:47;29.10;90.10
42339;DHT22;27993;45.392;10.918;2022-09-20T10:15:29;29.20;89.40
42339;DHT22;27993;45.392;10.918;2022-09-20T10:26:45;28.80;90.20
42339;DHT22;27993;45.392;10.918;2022-09-20T10:29:51;30.00;89.20
42339;DHT22;27993;45.392;10.918;2022-09-20T10:38:24;28.30;88.50
42339;DHT22;27993;45.392;10.918;2022-09-20T10:41:10;27.90;90.50
42339;DHT22;27993;45.392;10.918;2022-09-20T10:46:52;28.20;90.40
42339;DHT22;27993;45.392;10.918;2022-09-20T10:49:42;28.50;90.70
42339;DHT22;27993;45.392;10.918;2022-09-20T10:52:42;27.80;89.90
42339;DHT22;27993;45.392;10.918;2022-09-20T11:01:08;24.80;91.80
42339;DHT22;27993;45.392;10.918;2022-09-20T11:03:52;24.60;91.90
42339;DHT22;27993;45.392;10.918;2022-09-20T11:09:26;24.50;93.50
42339;DHT22;27993;45.392;10.918;2022-09-20T11:12:08;24.40;94.60
42339;DHT22;27993;45.392;10.918;2022-09-20T11:14:45;24.80;93.70
42339;DHT22;27993;45.392;10.918;2022-09-20T11:17:44;25.10;93.00
42339;DHT22;27993;45.392;10.918;2022-09-20T11:20:24;24.90;93.60
42339;DHT22;27993;45.392;10.918;2022-09-20T11:23:51;24.70;92.60
42339;DHT22;27993;45.392;10.918;2022-09-20T11:25:58;24.40;94.20
42339;DHT22;27993;45.392;10.918;2022-09-20T11:28:36;24.20;94.30
42339;DHT22;27993;45.392;10.918;2022-09-20T11:31:21;24.20;93.60
42339;DHT22;27993;45.392;10.918;2022-09-20T11:34:13;24.10;95.10
42339;DHT22;27993;45.392;10.918;2022-09-20T11:36:56;23.40;94.40
42339;DHT22;27993;45.392;10.918;2022-09-20T11:39:44;23.00;94.60
42339;DHT22;27993;45.392;10.918;2022-09-20T11:42:23;23.40;95.50
42339;DHT22;27993;45.392;10.918;2022-09-20T11:44:54;23.60;96.20
42339;DHT22;27993;45.392;10.918;2022-09-20T11:47:34;23.80;95.10
42339;DHT22;27993;45.392;10.918;2022-09-20T11:50:26;24.10;95.70
42339;DHT22;27993;45.392;10.918;2022-09-20T11:53:32;24.20;95.30
42339;DHT22;27993;45.392;10.918;2022-09-20T11:56:22;24.30;95.90
42339;DHT22;27993;45.392;10.918;2022-09-20T11:58:58;24.10;94.20
42339;DHT22;27993;45.392;10.918;2022-09-20T12:01:33;24.40;94.70
42339;DHT22;27993;45.392;10.918;2022-09-20T12:04:11;24.50;94.00
42339;DHT22;27993;45.392;10.918;2022-09-20T12:09:34;23.90;94.20
42339;DHT22;27993;45.392;10.918;2022-09-20T12:12:34;23.80;94.20
42339;DHT22;27993;45.392;10.918;2022-09-20T12:15:27;23.30;94.10
42339;DHT22;27993;45.392;10.918;2022-09-20T12:26:08;23.40;93.80
42339;DHT22;27993;45.392;10.918;2022-09-20T12:28:45;23.60;93.60
42339;DHT22;27993;45.392;10.918;2022-09-20T12:39:50;24.00;96.00
42339;DHT22;27993;45.392;10.918;2022-09-20T12:42:28;23.20;97.40
42339;DHT22;27993;45.392;10.918;2022-09-20T12:45:05;23.20;97.20
42339;DHT22;27993;45.392;10.918;2022-09-20T12:47:53;23.20;97.80
42339;DHT22;27993;45.392;10.918;2022-09-20T12:50:24;23.20;98.20
42339;DHT22;27993;45.392;10.918;2022-09-20T12:53:14;23.30;98.70
42339;DHT22;27993;45.392;10.918;2022-09-20T12:55:51;23.10;97.50
42339;DHT22;27993;45.392;10.918;2022-09-20T12:58:36;23.40;98.10
42339;DHT22;27993;45.392;10.918;2022-09-20T13:11:50;23.90;95.50
42339;DHT22;27993;45.392;10.918;2022-09-20T13:14:27;23.60;96.40
42339;DHT22;27993;45.392;10.918;2022-09-20T13:17:26;23.50;97.30
42339;DHT22;27993;45.392;10.918;2022-09-20T13:20:00;23.40;96.70
42339;DHT22;27993;45.392;10.918;2022-09-20T13:22:36;23.40;96.10
42339;DHT22;27993;45.392;10.918;2022-09-20T13:25:14;23.40;97.00
42339;DHT22;27993;45.392;10.918;2022-09-20T13:30:47;23.50;96.80
42339;DHT22;27993;45.392;10.918;2022-09-20T13:33:22;23.60;96.20
42339;DHT22;27993;45.392;10.918;2022-09-20T13:35:55;23.80;96.50
42339;DHT22;27993;45.392;10.918;2022-09-20T13:38:30;23.60;98.70
42339;DHT22;27993;45.392;10.918;2022-09-20T13:41:07;23.60;96.80
42339;DHT22;27993;45.392;10.918;2022-09-20T13:43:43;23.60;99.70
42339;DHT22;27993;45.392;10.918;2022-09-20T13:46:23;23.90;96.90
42339;DHT22;27993;45.392;10.918;2022-09-20T13:49:16;23.60;96.10
42339;DHT22;27993;45.392;10.918;2022-09-20T13:51:50;23.70;95.80
42339;DHT22;27993;45.392;10.918;2022-09-20T13:54:30;23.60;96.30
42339;DHT22;27993;45.392;10.918;2022-09-20T13:57:06;23.50;95.60
42339;DHT22;27993;45.392;10.918;2022-09-20T13:59:44;23.40;95.70
42339;DHT22;27993;45.392;10.918;2022-09-20T14:02:20;23.60;95.70
42339;DHT22;27993;45.392;10.918;2022-09-20T14:04:54;23.90;95.80
42339;DHT22;27993;45.392;10.918;2022-09-20T14:07:26;23.60;94.90
42339;DHT22;27993;45.392;10.918;2022-09-20T14:09:58;23.60;95.20
42339;DHT22;27993;45.392;10.918;2022-09-20T14:12:29;23.70;95.70
42339;DHT22;27993;45.392;10.918;2022-09-20T14:15:00;23.70;95.10
42339;DHT22;27993;45.392;10.918;2022-09-20T14:17:34;23.90;95.10
42339;DHT22;27993;45.392;10.918;2022-09-20T14:20:05;23.90;94.90
42339;DHT22;27993;45.392;10.918;2022-09-20T14:22:36;23.80;94.80
42339;DHT22;27993;45.392;10.918;2022-09-20T14:27:43;23.60;94.80
42339;DHT22;27993;45.392;10.918;2022-09-20T14:30:35;23.60;94.60
42339;DHT22;27993;45.392;10.918;2022-09-20T14:33:18;23.50;93.80
42339;DHT22;27993;45.392;10.918;2022-09-20T14:35:50;23.40;95.40
42339;DHT22;27993;45.392;10.918;2022-09-20T14:38:23;23.30;94.70
42339;DHT22;27993;45.392;10.918;2022-09-20T14:40:55;23.20;94.00
42339;DHT22;27993;45.392;10.918;2022-09-20T14:46:14;23.50;95.20
42339;DHT22;27993;45.392;10.918;2022-09-20T14:48:45;23.60;94.60
42339;DHT22;27993;45.392;10.918;2022-09-20T14:56:38;23.60;94.60
42339;DHT22;27993;45.392;10.918;2022-09-20T15:02:12;23.50;95.50
42339;DHT22;27993;45.392;10.918;2022-09-20T15:04:52;23.40;95.30
42339;DHT22;27993;45.392;10.918;2022-09-20T15:07:24;23.40;95.70
42339;DHT22;27993;45.392;10.918;2022-09-20T15:09:54;23.20;95.90
42339;DHT22;27993;45.392;10.918;2022-09-20T15:12:25;23.00;96.30
42339;DHT22;27993;45.392;10.918;2022-09-20T15:14:55;22.90;96.20
42339;DHT22;27993;45.392;10.918;2022-09-20T15:17:26;22.80;97.70
42339;DHT22;27993;45.392;10.918;2022-09-20T15:19:56;22.80;97.50
42339;DHT22;27993;45.392;10.918;2022-09-20T15:22:27;22.80;96.80
42339;DHT22;27993;45.392;10.918;2022-09-20T15:24:59;22.70;97.50
42339;DHT22;27993;45.392;10.918;2022-09-20T15:27:29;22.70;97.70
42339;DHT22;27993;45.392;10.918;2022-09-20T15:30:00;22.60;97.10
42339;DHT22;27993;45.392;10.918;2022-09-20T15:32:30;22.70;97.40
42339;DHT22;27993;45.392;10.918;2022-09-20T15:35:01;22.70;97.00
42339;DHT22;27993;45.392;10.918;2022-09-20T15:37:31;22.60;96.90
42339;DHT22;27993;45.392;10.918;2022-09-20T15:40:04;22.80;96.70
42339;DHT22;27993;45.392;10.918;2022-09-20T15:42:35;22.80;96.70
42339;DHT22;27993;45.392;10.918;2022-09-20T15:45:08;22.80;95.90
42339;DHT22;27993;45.392;10.918;2022-09-20T15:47:39;22.70;96.00
42339;DHT22;27993;45.392;10.918;2022-09-20T15:50:10;22.60;96.10
42339;DHT22;27993;45.392;10.918;2022-09-20T15:52:40;22.60;96.00
42339;DHT22;27993;45.392;10.918;2022-09-20T15:55:11;22.60;95.80
42339;DHT22;27993;45.392;10.918;2022-09-20T15:57:43;22.60;96.00
42339;DHT22;27993;45.392;10.918;2022-09-20T16:00:14;22.50;95.70
42339;DHT22;27993;45.392;10.918;2022-09-20T16:02:50;22.50;96.00
42339;DHT22;27993;45.392;10.918;2022-09-20T16:05:20;22.50;95.70
42339;DHT22;27993;45.392;10.918;2022-09-20T16:07:51;22.40;96.60
42339;DHT22;27993;45.392;10.918;2022-09-20T16:10:21;22.50;95.90
42339;DHT22;27993;45.392;10.918;2022-09-20T16:12:52;22.40;96.10
42339;DHT22;27993;45.392;10.918;2022-09-20T16:15:22;22.40;96.10
42339;DHT22;27993;45.392;10.918;2022-09-20T16:17:53;22.40;95.80
42339;DHT22;27993;45.392;10.918;2022-09-20T16:20:42;22.40;95.60
42339;DHT22;27993;45.392;10.918;2022-09-20T16:23:13;22.30;96.20
42339;DHT22;27993;45.392;10.918;2022-09-20T16:25:43;22.10;97.30
42339;DHT22;27993;45.392;10.918;2022-09-20T16:28:19;21.90;97.40
42339;DHT22;27993;45.392;10.918;2022-09-20T16:30:55;22.00;96.90
42339;DHT22;27993;45.392;10.918;2022-09-20T16:33:26;21.90;97.40
42339;DHT22;27993;45.392;10.918;2022-09-20T16:35:57;21.90;97.50
42339;DHT22;27993;45.392;10.918;2022-09-20T16:38:28;21.90;97.60
42339;DHT22;27993;45.392;10.918;2022-09-20T16:40:58;21.70;98.50
42339;DHT22;27993;45.392;10.918;2022-09-20T16:43:31;21.60;99.00
42339;DHT22;27993;45.392;10.918;2022-09-20T16:46:03;21.60;99.40
42339;DHT22;27993;45.392;10.918;2022-09-20T16:48:34;21.60;99.30
42339;DHT22;27993;45.392;10.918;2022-09-20T16:51:05;21.70;99.80
42339;DHT22;27993;45.392;10.918;2022-09-20T16:53:36;21.70;99.60
42339;DHT22;27993;45.392;10.918;2022-09-20T16:56:06;21.60;99.90
42339;DHT22;27993;45.392;10.918;2022-09-20T16:58:37;21.70;99.90
42339;DHT22;27993;45.392;10.918;2022-09-20T17:01:09;21.50;99.90
42339;DHT22;27993;45.392;10.918;2022-09-20T17:03:40;21.50;99.90
42339;DHT22;27993;45.392;10.918;2022-09-20T17:06:12;21.50;99.90
42339;DHT22;27993;45.392;10.918;2022-09-20T17:08:44;21.50;99.90
42339;DHT22;27993;45.392;10.918;2022-09-20T17:11:18;21.30;99.90
42339;DHT22;27993;45.392;10.918;2022-09-20T17:13:53;21.20;99.90
42339;DHT22;27993;45.392;10.918;2022-09-20T17:16:26;21.10;99.90
42339;DHT22;27993;45.392;10.918;2022-09-20T17:18:59;21.00;99.90
42339;DHT22;27993;45.392;10.918;2022-09-20T17:21:31;21.00;99.90
42339;DHT22;27993;45.392;10.918;2022-09-20T17:24:03;21.00;99.90
42339;DHT22;27993;45.392;10.918;2022-09-20T17:26:39;21.00;99.90
42339;DHT22;27993;45.392;10.918;2022-09-20T17:29:13;21.00;99.90
42339;DHT22;27993;45.392;10.918;2022-09-20T17:31:49;21.00;99.90
42339;DHT22;27993;45.392;10.918;2022-09-20T17:34:22;20.70;99.90
42339;DHT22;27993;45.392;10.918;2022-09-20T17:36:53;20.50;99.90
42339;DHT22;27993;45.392;10.918;2022-09-20T17:39:24;20.50;99.90
42339;DHT22;27993;45.392;10.918;2022-09-20T17:41:55;20.30;99.90
42339;DHT22;27993;45.392;10.918;2022-09-20T17:44:26;20.20;99.90
42339;DHT22;27993;45.392;10.918;2022-09-20T17:46:57;20.30;99.90
42339;DHT22;27993;45.392;10.918;2022-09-20T17:49:27;20.20;99.90
42339;DHT22;27993;45.392;10.918;2022-09-20T17:51:59;20.10;99.90
42339;DHT22;27993;45.392;10.918;2022-09-20T17:54:30;20.00;99.90
42339;DHT22;27993;45.392;10.918;2022-09-20T17:57:00;19.90;99.90
42339;DHT22;27993;45.392;10.918;2022-09-20T17:59:31;19.70;99.90
42339;DHT22;27993;45.392;10.918;2022-09-20T18:02:03;19.70;99.90
42339;DHT22;27993;45.392;10.918;2022-09-20T18:04:34;19.70;99.90
42339;DHT22;27993;45.392;10.918;2022-09-20T18:07:04;19.80;99.90
42339;DHT22;27993;45.392;10.918;2022-09-20T18:09:35;19.70;99.90
42339;DHT22;27993;45.392;10.918;2022-09-20T18:12:05;19.70;99.90
42339;DHT22;27993;45.392;10.918;2022-09-20T18:14:36;19.50;99.90
42339;DHT22;27993;45.392;10.918;2022-09-20T18:17:07;19.50;99.90
42339;DHT22;27993;45.392;10.918;2022-09-20T18:19:37;19.30;99.90
42339;DHT22;27993;45.392;10.918;2022-09-20T18:22:10;19.00;99.90
42339;DHT22;27993;45.392;10.918;2022-09-20T18:24:42;18.90;99.90
42339;DHT22;27993;45.392;10.918;2022-09-20T18:27:13;18.70;99.90
42339;DHT22;27993;45.392;10.918;2022-09-20T18:29:43;18.60;99.90
42339;DHT22;27993;45.392;10.918;2022-09-20T18:32:14;18.70;99.90
42339;DHT22;27993;45.392;10.918;2022-09-20T18:34:46;18.70;99.90
42339;DHT22;27993;45.392;10.918;2022-09-20T18:37:20;18.60;99.90
42339;DHT22;27993;45.392;10.918;2022-09-20T18:39:51;18.30;99.90
42339;DHT22;27993;45.392;10.918;2022-09-20T18:42:21;18.30;99.90
42339;DHT22;27993;45.392;10.918;2022-09-20T18:44:52;18.40;99.90
42339;DHT22;27993;45.392;10.918;2022-09-20T18:47:23;18.20;99.90
42339;DHT22;27993;45.392;10.918;2022-09-20T18:49:53;18.20;99.90
42339;DHT22;27993;45.392;10.918;2022-09-20T18:52:24;18.20;99.90
42339;DHT22;27993;45.392;10.918;2022-09-20T18:54:54;18.20;99.90
42339;DHT22;27993;45.392;10.918;2022-09-20T18:57:28;18.20;99.90
42339;DHT22;27993;45.392;10.918;2022-09-20T18:59:58;18.10;99.90
42339;DHT22;27993;45.392;10.918;2022-09-20T19:05:42;18.20;99.90
42339;DHT22;27993;45.392;10.918;2022-09-20T19:08:32;18.30;99.90
42339;DHT22;27993;45.392;10.918;2022-09-20T19:11:11;18.40;99.90
42339;DHT22;27993;45.392;10.918;2022-09-20T19:14:04;18.50;99.90
42339;DHT22;27993;45.392;10.918;2022-09-20T19:16:35;18.50;99.90
42339;DHT22;27993;45.392;10.918;2022-09-20T19:22:26;18.40;99.90
42339;DHT22;27993;45.392;10.918;2022-09-20T19:27:37;17.80;99.90
42339;DHT22;27993;45.392;10.918;2022-09-20T19:30:12;17.80;99.90
42339;DHT22;27993;45.392;10.918;2022-09-20T19:32:43;17.70;99.90
42339;DHT22;27993;45.392;10.918;2022-09-20T19:35:24;17.60;99.90
42339;DHT22;27993;45.392;10.918;2022-09-20T19:41:02;17.50;99.90
42339;DHT22;27993;45.392;10.918;2022-09-20T19:49:07;17.50;99.90
42339;DHT22;27993;45.392;10.918;2022-09-20T19:51:44;17.40;99.90
42339;DHT22;27993;45.392;10.918;2022-09-20T19:54:15;17.30;99.90
42339;DHT22;27993;45.392;10.918;2022-09-20T19:56:52;17.30;99.90
42339;DHT22;27993;45.392;10.918;2022-09-20T19:59:24;17.40;99.90
42339;DHT22;27993;45.392;10.918;2022-09-20T20:01:56;17.40;99.90
42339;DHT22;27993;45.392;10.918;2022-09-20T20:04:27;17.30;99.90
42339;DHT22;27993;45.392;10.918;2022-09-20T20:07:05;17.20;99.90
42339;DHT22;27993;45.392;10.918;2022-09-20T20:09:44;17.10;99.90
42339;DHT22;27993;45.392;10.918;2022-09-20T20:12:23;17.10;99.90
42339;DHT22;27993;45.392;10.918;2022-09-20T20:15:30;17.00;99.90
42339;DHT22;27993;45.392;10.918;2022-09-20T20:21:03;17.00;99.90
42339;DHT22;27993;45.392;10.918;2022-09-20T20:23:56;17.10;99.90
42339;DHT22;27993;45.392;10.918;2022-09-20T20:26:33;17.10;99.90
42339;DHT22;27993;45.392;10.918;2022-09-20T20:29:04;17.10;99.90
42339;DHT22;27993;45.392;10.918;2022-09-20T20:31:35;17.00;99.90
42339;DHT22;27993;45.392;10.918;2022-09-20T20:34:05;16.90;99.90
42339;DHT22;27993;45.392;10.918;2022-09-20T20:36:38;16.90;99.90
42339;DHT22;27993;45.392;10.918;2022-09-20T20:39:09;16.80;99.90
42339;DHT22;27993;45.392;10.918;2022-09-20T20:41:40;16.70;99.90
42339;DHT22;27993;45.392;10.918;2022-09-20T20:44:12;16.70;99.90
42339;DHT22;27993;45.392;10.918;2022-09-20T20:46:43;16.60;99.90
42339;DHT22;27993;45.392;10.918;2022-09-20T20:49:14;16.60;99.90
42339;DHT22;27993;45.392;10.918;2022-09-20T20:51:45;16.70;99.90
42339;DHT22;27993;45.392;10.918;2022-09-20T20:54:17;16.70;99.90
42339;DHT22;27993;45.392;10.918;2022-09-20T20:56:47;16.70;99.90